createdAt,value
2019-01-22T00:00:57.481Z,-5.45
2019-01-22T00:03:24.257Z,-5.15
2019-01-22T00:05:51.019Z,-5.52
2019-01-22T00:08:17.796Z,-5.55
2019-01-22T00:10:44.564Z,-5.49
2019-01-22T00:13:11.333Z,-5.03
2019-01-22T00:15:38.096Z,-5.21
2019-01-22T00:18:04.890Z,-5.21
2019-01-22T00:20:31.704Z,-4.87
2019-01-22T00:23:02.822Z,-4.99
2019-01-22T00:25:25.245Z,-5.15
2019-01-22T00:27:52.001Z,-4.87
2019-01-22T00:30:18.804Z,-5.31
2019-01-22T00:32:45.578Z,-5.44
2019-01-22T00:35:12.335Z,-4.89
2019-01-22T00:37:39.377Z,-5.30
2019-01-22T00:40:07.985Z,-5.44
2019-01-22T00:42:34.743Z,-5.66
2019-01-22T00:45:01.526Z,-5.76
2019-01-22T00:47:28.285Z,-5.51
2019-01-22T00:49:55.040Z,-5.71
2019-01-22T00:52:21.803Z,-5.60
2019-01-22T00:54:48.592Z,-5.79
2019-01-22T00:57:15.341Z,-5.31
2019-01-22T00:59:42.115Z,-5.72
2019-01-22T01:02:08.888Z,-5.85
2019-01-22T01:04:35.662Z,-5.14
2019-01-22T01:07:02.445Z,-5.64
2019-01-22T01:09:29.208Z,-5.15
2019-01-22T01:11:55.968Z,-5.47
2019-01-22T01:14:22.745Z,-6.12
2019-01-22T01:16:49.501Z,-5.78
2019-01-22T01:19:16.279Z,-6.03
2019-01-22T01:21:43.078Z,-5.78
2019-01-22T01:24:09.852Z,-5.82
2019-01-22T01:26:36.613Z,-5.77
2019-01-22T01:29:03.392Z,-5.70
2019-01-22T01:31:30.157Z,-5.78
2019-01-22T01:33:56.904Z,-5.86
2019-01-22T01:36:23.659Z,-6.20
2019-01-22T01:38:50.428Z,-5.86
2019-01-22T01:41:17.189Z,-6.00
2019-01-22T01:43:43.965Z,-6.05
2019-01-22T01:46:10.727Z,-6.21
2019-01-22T01:48:37.488Z,-5.71
2019-01-22T01:51:04.296Z,-5.89
2019-01-22T01:53:31.081Z,-6.14
2019-01-22T01:55:57.828Z,-6.19
2019-01-22T01:58:24.590Z,-6.26
2019-01-22T02:00:51.396Z,-6.21
2019-01-22T02:03:18.150Z,-5.89
2019-01-22T02:05:44.925Z,-6.17
2019-01-22T02:08:11.677Z,-6.06
2019-01-22T02:10:38.940Z,-5.63
2019-01-22T02:13:09.695Z,-6.00
2019-01-22T02:15:45.928Z,-6.11
2019-01-22T02:18:32.604Z,-6.18
2019-01-22T02:21:24.988Z,-6.14
2019-01-22T02:24:04.972Z,-6.26
2019-01-22T02:27:00.421Z,-6.24
2019-01-22T02:29:37.868Z,-6.24
2019-01-22T02:32:28.243Z,-6.19
2019-01-22T02:35:26.353Z,-6.30
2019-01-22T02:38:22.680Z,-6.07
2019-01-22T02:41:03.312Z,-6.15
2019-01-22T02:43:56.492Z,-6.04
2019-01-22T02:46:33.510Z,-6.14
2019-01-22T02:49:20.617Z,-6.08
2019-01-22T02:52:13.433Z,-6.03
2019-01-22T02:54:50.325Z,-6.05
2019-01-22T02:57:42.316Z,-5.84
2019-01-22T03:00:53.041Z,-5.88
2019-01-22T03:03:35.488Z,-5.81
2019-01-22T03:06:22.993Z,-5.76
2019-01-22T03:09:29.736Z,-5.72
2019-01-22T03:12:06.006Z,-5.73
2019-01-22T03:14:52.620Z,-5.86
2019-01-22T03:17:31.381Z,-5.68
2019-01-22T03:20:08.781Z,-5.53
2019-01-22T03:23:03.448Z,-5.05
2019-01-22T03:25:47.675Z,-4.60
2019-01-22T03:28:33.944Z,-4.89
2019-01-22T03:31:28.662Z,-5.01
2019-01-22T03:34:11.580Z,-4.95
2019-01-22T03:37:02.667Z,-4.93
2019-01-22T03:39:52.286Z,-4.87
2019-01-22T03:43:00.931Z,-4.70
2019-01-22T03:45:56.654Z,-4.65
2019-01-22T03:48:37.921Z,-4.45
2019-01-22T03:51:19.516Z,-3.98
2019-01-22T03:53:57.724Z,-4.22
2019-01-22T03:56:34.812Z,-4.13
2019-01-22T03:59:01.574Z,-4.08
2019-01-22T04:01:30.325Z,-3.73
2019-01-22T04:03:57.100Z,-3.86
2019-01-22T04:06:31.062Z,-3.79
2019-01-22T04:09:00.669Z,-4.23
2019-01-22T04:11:32.958Z,-3.94
2019-01-22T04:13:59.725Z,-3.71
2019-01-22T04:16:26.518Z,-3.98
2019-01-22T04:18:53.265Z,-4.17
2019-01-22T04:21:23.084Z,-3.70
2019-01-22T04:24:02.028Z,-3.56
2019-01-22T04:26:43.164Z,-3.62
2019-01-22T04:29:35.914Z,-3.07
2019-01-22T04:32:14.613Z,-2.82
2019-01-22T04:34:51.856Z,-3.21
2019-01-22T04:37:48.524Z,-2.83
2019-01-22T04:40:25.835Z,-2.93
2019-01-22T04:43:29.824Z,-3.18
2019-01-22T04:46:31.328Z,-2.97
2019-01-22T04:49:09.522Z,-2.76
2019-01-22T04:51:58.492Z,-3.15
2019-01-22T04:54:34.962Z,-2.71
2019-01-22T04:57:11.841Z,-2.53
2019-01-22T04:59:52.870Z,-2.79
2019-01-22T05:02:43.264Z,-2.62
2019-01-22T05:05:20.993Z,-2.35
2019-01-22T05:08:05.882Z,-2.80
2019-01-22T05:10:47.865Z,-2.31
2019-01-22T05:13:46.142Z,-2.31
2019-01-22T05:16:37.164Z,-2.81
2019-01-22T05:19:32.743Z,-2.23
2019-01-22T05:22:18.873Z,-2.06
2019-01-22T05:25:18.968Z,-2.78
2019-01-22T05:28:16.905Z,-2.73
2019-01-22T05:30:55.165Z,-2.44
2019-01-22T05:33:33.328Z,-2.36
2019-01-22T05:36:26.229Z,-2.71
2019-01-22T05:39:10.834Z,-2.35
2019-01-22T05:41:49.216Z,-2.22
2019-01-22T05:44:32.444Z,-2.80
2019-01-22T05:47:39.576Z,-2.55
2019-01-22T05:50:31.708Z,-2.64
2019-01-22T05:53:19.397Z,-2.93
2019-01-22T05:55:46.821Z,-2.69
2019-01-22T05:58:38.284Z,-2.74
2019-01-22T06:01:13.996Z,-3.17
2019-01-22T06:04:03.189Z,-2.67
2019-01-22T06:07:10.301Z,-2.74
2019-01-22T06:10:10.136Z,-3.22
2019-01-22T06:13:05.705Z,-2.63
2019-01-22T06:15:49.430Z,-2.92
2019-01-22T06:18:24.990Z,-2.64
2019-01-22T06:21:19.613Z,-2.75
2019-01-22T06:23:59.046Z,-2.64
2019-01-22T06:26:35.265Z,-2.19
2019-01-22T06:29:42.221Z,-2.34
2019-01-22T06:32:36.157Z,-2.66
2019-01-22T06:35:15.554Z,-2.40
2019-01-22T06:37:53.259Z,-2.50
2019-01-22T06:40:46.950Z,-2.82
2019-01-22T06:43:29.701Z,-2.63
2019-01-22T06:46:13.900Z,-3.22
2019-01-22T06:48:57.632Z,-2.81
2019-01-22T06:51:52.021Z,-2.36
2019-01-22T06:54:44.260Z,-2.88
2019-01-22T06:57:52.065Z,-2.73
2019-01-22T07:00:49.480Z,-2.45
2019-01-22T07:03:38.228Z,-1.98
2019-01-22T07:06:22.518Z,-2.00
2019-01-22T07:09:22.133Z,-2.62
2019-01-22T07:12:32.494Z,-2.03
2019-01-22T07:15:28.326Z,-1.99
2019-01-22T07:18:13.293Z,-2.54
2019-01-22T07:21:09.758Z,-2.03
2019-01-22T07:24:06.725Z,-2.01
2019-01-22T07:26:44.580Z,-1.75
2019-01-22T07:29:35.486Z,-2.38
2019-01-22T07:32:12.289Z,-1.85
2019-01-22T07:35:02.298Z,-1.60
2019-01-22T07:37:51.918Z,-2.17
2019-01-22T07:40:51.852Z,-1.55
2019-01-22T07:43:25.833Z,-1.37
2019-01-22T07:46:11.577Z,-1.35
2019-01-22T07:48:46.992Z,-2.07
2019-01-22T07:51:26.965Z,-1.50
2019-01-22T07:54:12.552Z,-1.16
2019-01-22T07:56:47.316Z,-1.61
2019-01-22T07:59:37.924Z,-1.23
2019-01-22T08:02:30.816Z,-1.79
2019-01-22T08:05:09.824Z,-1.16
2019-01-22T08:07:57.704Z,-0.92
2019-01-22T08:10:38.728Z,-1.36
2019-01-22T08:13:25.250Z,-0.86
2019-01-22T08:16:09.152Z,-0.90
2019-01-22T08:18:53.842Z,-1.33
2019-01-22T08:21:30.620Z,-0.88
2019-01-22T08:24:08.604Z,-0.84
2019-01-22T08:26:53.570Z,-1.37
2019-01-22T08:29:53.605Z,-1.18
2019-01-22T08:33:02.576Z,-1.35
2019-01-22T08:35:48.608Z,-1.52
2019-01-22T08:38:33.397Z,-1.27
2019-01-22T08:41:39.400Z,-1.33
2019-01-22T08:44:37.670Z,-1.73
2019-01-22T08:47:16.057Z,-1.39
2019-01-22T08:50:11.533Z,-1.28
2019-01-22T08:53:00.180Z,-1.55
2019-01-22T08:55:41.169Z,-1.17
2019-01-22T08:58:37.224Z,-1.05
2019-01-22T09:01:35.643Z,-1.42
2019-01-22T09:04:29.982Z,-1.12
2019-01-22T09:07:12.970Z,-0.94
2019-01-22T09:10:13.568Z,-1.26
2019-01-22T09:12:55.938Z,-1.06
2019-01-22T09:15:40.415Z,-1.12
2019-01-22T09:18:34.445Z,-1.22
2019-01-22T09:21:22.107Z,-1.50
2019-01-22T09:23:57.130Z,-0.96
2019-01-22T09:27:04.071Z,-0.75
2019-01-22T09:30:01.482Z,-1.22
2019-01-22T09:32:59.045Z,-0.84
2019-01-22T09:35:51.349Z,-0.96
2019-01-22T09:38:18.144Z,-1.54
2019-01-22T09:40:44.901Z,-0.88
2019-01-22T09:43:11.676Z,-0.80
2019-01-22T09:45:38.553Z,-1.42
2019-01-22T09:48:05.310Z,-1.21
2019-01-22T09:50:32.138Z,-1.25
2019-01-22T09:52:58.899Z,-1.29
2019-01-22T09:55:25.683Z,-1.10
2019-01-22T09:57:52.427Z,-0.97
2019-01-22T10:00:19.214Z,-1.15
2019-01-22T10:02:45.977Z,-0.77
2019-01-22T10:05:12.757Z,-0.46
2019-01-22T10:07:39.520Z,-0.94
2019-01-22T10:10:09.859Z,-0.64
2019-01-22T10:12:36.627Z,-0.46
2019-01-22T10:15:04.346Z,-0.90
2019-01-22T10:17:31.124Z,-1.25
2019-01-22T10:19:57.904Z,-1.02
2019-01-22T10:22:24.656Z,-0.98
2019-01-22T10:24:51.429Z,-0.97
2019-01-22T10:27:18.216Z,-0.80
2019-01-22T10:29:44.996Z,-0.88
2019-01-22T10:32:11.768Z,-0.87
2019-01-22T10:34:38.511Z,-0.43
2019-01-22T10:37:05.301Z,-0.50
2019-01-22T10:39:32.083Z,-0.78
2019-01-22T10:41:58.897Z,-0.44
2019-01-22T10:44:25.649Z,-0.34
2019-01-22T10:46:52.448Z,-0.38
2019-01-22T10:49:19.224Z,-0.17
2019-01-22T10:51:46.009Z,0.04
2019-01-22T10:54:12.781Z,-0.28
2019-01-22T10:56:39.554Z,-0.10
2019-01-22T10:59:06.507Z,-0.43
2019-01-22T11:01:34.253Z,-0.50
2019-01-22T11:04:01.037Z,0.11
2019-01-22T11:06:27.858Z,-0.11
2019-01-22T11:08:54.648Z,0.27
2019-01-22T11:11:21.445Z,0.32
2019-01-22T11:13:48.229Z,0.15
2019-01-22T11:16:15.170Z,-0.08
2019-01-22T11:18:41.802Z,0.38
2019-01-22T11:21:08.613Z,0.54
2019-01-22T11:23:35.402Z,0.43
2019-01-22T11:26:02.208Z,0.91
2019-01-22T11:28:29.011Z,0.91
2019-01-22T11:30:55.801Z,0.58
2019-01-22T11:33:22.568Z,1.07
2019-01-22T11:35:49.365Z,0.64
2019-01-22T11:38:16.141Z,0.88
2019-01-22T11:40:45.088Z,1.04
2019-01-22T11:43:11.889Z,0.42
2019-01-22T11:45:38.676Z,0.86
2019-01-22T11:48:07.097Z,1.36
2019-01-22T11:50:33.893Z,0.80
2019-01-22T11:53:00.786Z,1.17
2019-01-22T11:55:27.553Z,1.41
2019-01-22T11:57:54.362Z,0.65
2019-01-22T12:00:29.053Z,0.79
2019-01-22T12:02:55.862Z,0.30
2019-01-22T12:05:22.652Z,0.43
2019-01-22T12:07:49.446Z,0.97
2019-01-22T12:10:16.220Z,0.68
2019-01-22T12:12:43.040Z,1.25
2019-01-22T12:15:11.833Z,1.26
2019-01-22T12:17:38.621Z,0.56
2019-01-22T12:20:09.669Z,0.93
2019-01-22T12:22:36.466Z,0.77
2019-01-22T12:25:03.877Z,0.50
2019-01-22T12:27:30.689Z,1.00
2019-01-22T12:29:57.458Z,1.16
2019-01-22T12:32:24.265Z,0.81
2019-01-22T12:34:51.029Z,1.08
2019-01-22T12:37:17.866Z,0.98
2019-01-22T12:39:44.631Z,0.60
2019-01-22T12:42:11.462Z,0.98
2019-01-22T12:44:38.231Z,1.23
2019-01-22T12:47:05.031Z,0.80
2019-01-22T12:49:31.797Z,1.09
2019-01-22T12:51:58.584Z,0.83
2019-01-22T12:54:25.364Z,0.81
2019-01-22T12:56:52.137Z,0.95
2019-01-22T12:59:18.884Z,1.28
2019-01-22T13:01:45.661Z,1.05
2019-01-22T13:04:12.450Z,0.49
2019-01-22T13:06:39.212Z,0.88
2019-01-22T13:09:06.785Z,1.01
2019-01-22T13:11:33.601Z,1.45
2019-01-22T13:14:00.375Z,0.82
2019-01-22T13:16:27.164Z,0.87
2019-01-22T13:18:53.998Z,0.67
2019-01-22T13:21:22.829Z,0.97
2019-01-22T13:23:49.661Z,0.99
2019-01-22T13:26:16.434Z,1.35
2019-01-22T13:28:43.223Z,1.60
2019-01-22T13:31:12.005Z,1.06
2019-01-22T13:33:38.825Z,1.35
2019-01-22T13:36:05.611Z,1.53
2019-01-22T13:38:32.408Z,0.85
2019-01-22T13:40:59.195Z,1.28
2019-01-22T13:43:27.086Z,1.35
2019-01-22T13:45:53.886Z,0.98
2019-01-22T13:48:22.277Z,1.30
2019-01-22T13:50:49.068Z,0.82
2019-01-22T13:53:15.857Z,1.01
2019-01-22T13:55:42.633Z,1.09
2019-01-22T13:58:09.446Z,0.65
2019-01-22T14:00:36.228Z,0.94
2019-01-22T14:03:03.066Z,1.22
2019-01-22T14:05:29.874Z,0.67
2019-01-22T14:07:56.723Z,1.13
2019-01-22T14:10:23.498Z,1.45
2019-01-22T14:12:50.298Z,0.92
2019-01-22T14:15:20.418Z,1.36
2019-01-22T14:17:47.231Z,0.97
2019-01-22T14:20:14.194Z,1.25
2019-01-22T14:22:40.994Z,0.76
2019-01-22T14:25:09.475Z,1.12
2019-01-22T14:27:36.321Z,1.23
2019-01-22T14:30:04.027Z,0.82
2019-01-22T14:32:42.427Z,1.06
2019-01-22T14:35:09.250Z,1.05
2019-01-22T14:37:36.080Z,1.18
2019-01-22T14:40:02.873Z,0.85
2019-01-22T14:42:29.673Z,1.11
2019-01-22T14:44:56.449Z,0.82
2019-01-22T14:47:23.226Z,0.89
2019-01-22T14:49:50.018Z,1.09
2019-01-22T14:52:16.854Z,1.17
2019-01-22T14:54:43.657Z,1.22
2019-01-22T14:57:13.815Z,0.84
2019-01-22T14:59:40.621Z,1.30
2019-01-22T15:02:07.431Z,1.26
2019-01-22T15:04:35.257Z,0.98
2019-01-22T15:07:02.063Z,1.29
2019-01-22T15:09:28.877Z,1.03
2019-01-22T15:11:55.653Z,1.39
2019-01-22T15:14:22.597Z,1.62
2019-01-22T15:16:49.458Z,1.34
2019-01-22T15:19:16.232Z,1.57
2019-01-22T15:21:42.996Z,1.58
2019-01-22T15:24:10.128Z,1.32
2019-01-22T15:26:39.561Z,1.79
2019-01-22T15:29:04.026Z,1.22
2019-01-22T15:31:30.888Z,1.78
2019-01-22T15:33:58.133Z,1.30
2019-01-22T15:36:27.206Z,1.59
2019-01-22T15:38:54.883Z,1.29
2019-01-22T15:41:28.626Z,1.49
2019-01-22T15:43:55.570Z,1.72
2019-01-22T15:46:22.944Z,1.19
2019-01-22T15:48:50.063Z,1.72
2019-01-22T15:51:16.858Z,1.11
2019-01-22T15:53:43.697Z,1.64
2019-01-22T15:56:10.553Z,1.54
2019-01-22T15:58:37.492Z,1.27
2019-01-22T16:01:04.309Z,1.51
2019-01-22T16:03:31.220Z,1.12
2019-01-22T16:05:58.094Z,1.46
2019-01-22T16:08:24.898Z,1.54
2019-01-22T16:10:51.897Z,1.03
2019-01-22T16:13:18.908Z,1.27
2019-01-22T16:15:45.737Z,0.76
2019-01-22T16:18:12.653Z,0.80
2019-01-22T16:20:39.453Z,0.78
2019-01-22T16:23:07.314Z,0.34
2019-01-22T16:25:34.085Z,0.49
2019-01-22T16:28:00.943Z,0.87
2019-01-22T16:30:29.913Z,0.35
2019-01-22T16:32:56.764Z,0.34
2019-01-22T16:35:24.985Z,0.09
2019-01-22T16:37:52.062Z,0.22
2019-01-22T16:40:18.863Z,0.58
2019-01-22T16:42:45.928Z,0.50
2019-01-22T16:45:34.119Z,0.20
2019-01-22T16:48:00.965Z,0.12
2019-01-22T16:50:29.684Z,0.20
2019-01-22T16:52:56.497Z,-0.07
2019-01-22T16:55:26.480Z,0.14
2019-01-22T16:57:53.386Z,-0.01
2019-01-22T17:00:22.819Z,0.12
2019-01-22T17:02:49.645Z,-0.11
2019-01-22T17:05:16.537Z,0.17
2019-01-22T17:07:43.374Z,0.19
2019-01-22T17:10:11.888Z,-0.07
2019-01-22T17:12:38.693Z,0.17
2019-01-22T17:15:06.462Z,0.36
2019-01-22T17:17:33.306Z,0.07
2019-01-22T17:20:00.153Z,0.10
2019-01-22T17:22:26.963Z,0.09
2019-01-22T17:24:53.799Z,-0.24
2019-01-22T17:27:20.577Z,-0.05
2019-01-22T17:29:47.374Z,0.29
2019-01-22T17:32:23.281Z,0.15
2019-01-22T17:34:52.250Z,0.29
2019-01-22T17:37:22.166Z,0.27
2019-01-22T17:39:48.997Z,-0.11
2019-01-22T17:42:15.838Z,-0.02
2019-01-22T17:44:42.652Z,0.24
2019-01-22T17:47:09.640Z,-0.17
2019-01-22T17:49:37.580Z,0.10
2019-01-22T17:52:04.504Z,0.13
2019-01-22T17:54:31.313Z,-0.33
2019-01-22T17:56:59.177Z,-0.11
2019-01-22T17:59:26.017Z,0.12
2019-01-22T18:01:52.838Z,0.01
2019-01-22T18:04:20.637Z,0.26
2019-01-22T18:06:47.472Z,0.24
2019-01-22T18:09:16.312Z,-0.05
2019-01-22T18:11:43.097Z,0.15
2019-01-22T18:14:09.964Z,0.15
2019-01-22T18:16:36.778Z,0.03
2019-01-22T18:19:03.753Z,0.11
2019-01-22T18:21:30.545Z,-0.27
2019-01-22T18:23:57.362Z,-0.27
2019-01-22T18:26:24.165Z,0.00
2019-01-22T18:28:50.969Z,0.07
2019-01-22T18:31:17.800Z,-0.70
2019-01-22T18:33:44.637Z,-0.41
2019-01-22T18:36:11.485Z,-0.45
2019-01-22T18:38:38.290Z,-0.88
2019-01-22T18:41:05.124Z,-0.45
2019-01-22T18:43:31.937Z,-0.34
2019-01-22T18:45:58.781Z,-0.73
2019-01-22T18:48:25.588Z,-0.47
2019-01-22T18:50:52.669Z,-0.52
2019-01-22T18:53:19.461Z,-0.98
2019-01-22T18:55:46.301Z,-0.53
2019-01-22T18:58:15.213Z,-0.35
2019-01-22T19:00:42.021Z,-1.10
2019-01-22T19:03:08.821Z,-0.37
2019-01-22T19:05:35.662Z,-0.14
2019-01-22T19:08:09.094Z,-0.87
2019-01-22T19:10:35.701Z,-0.47
2019-01-22T19:13:02.645Z,-0.32
2019-01-22T19:15:30.265Z,-0.95
2019-01-22T19:17:57.327Z,-0.77
2019-01-22T19:20:24.390Z,-0.64
2019-01-22T19:22:51.321Z,-1.11
2019-01-22T19:25:20.304Z,-0.75
2019-01-22T19:27:47.605Z,-0.78
2019-01-22T19:30:16.737Z,-0.76
2019-01-22T19:32:44.027Z,-1.39
2019-01-22T19:35:11.362Z,-1.02
2019-01-22T19:37:38.539Z,-1.36
2019-01-22T19:40:07.444Z,-1.04
2019-01-22T19:42:34.508Z,-0.94
2019-01-22T19:45:01.318Z,-1.54
2019-01-22T19:47:28.349Z,-1.30
2019-01-22T19:49:55.124Z,-1.16
2019-01-22T19:52:21.940Z,-1.61
2019-01-22T19:54:48.722Z,-1.38
2019-01-22T19:57:15.515Z,-1.34
2019-01-22T19:59:42.314Z,-1.62
2019-01-22T20:02:09.120Z,-1.54
2019-01-22T20:04:35.951Z,-1.51
2019-01-22T20:07:02.785Z,-1.86
2019-01-22T20:09:29.557Z,-1.55
2019-01-22T20:11:56.362Z,-1.65
2019-01-22T20:14:23.150Z,-1.94
2019-01-22T20:16:49.963Z,-1.81
2019-01-22T20:19:16.786Z,-1.78
2019-01-22T20:21:43.601Z,-2.03
2019-01-22T20:24:10.377Z,-1.77
2019-01-22T20:26:37.219Z,-1.47
2019-01-22T20:29:04.053Z,-1.61
2019-01-22T20:31:30.886Z,-1.34
2019-01-22T20:33:57.701Z,-1.34
2019-01-22T20:36:24.609Z,-1.51
2019-01-22T20:38:51.521Z,-1.26
2019-01-22T20:41:18.323Z,-1.11
2019-01-22T20:43:45.110Z,-1.23
2019-01-22T20:46:11.911Z,-0.97
2019-01-22T20:48:38.753Z,-0.94
2019-01-22T20:51:05.585Z,-1.11
2019-01-22T20:53:32.373Z,-0.90
2019-01-22T20:55:59.224Z,-0.73
2019-01-22T20:58:26.013Z,-0.99
2019-01-22T21:00:52.881Z,-0.83
2019-01-22T21:03:19.714Z,-0.73
2019-01-22T21:05:46.529Z,-0.74
2019-01-22T21:08:13.440Z,-1.01
2019-01-22T21:10:40.231Z,-0.92
2019-01-22T21:13:07.047Z,-0.98
2019-01-22T21:15:33.856Z,-1.23
2019-01-22T21:18:00.653Z,-1.02
2019-01-22T21:20:27.553Z,-0.90
2019-01-22T21:22:59.135Z,-0.98
2019-01-22T21:25:25.945Z,-0.91
2019-01-22T21:27:52.762Z,-0.86
2019-01-22T21:30:25.366Z,-1.19
2019-01-22T21:32:52.182Z,-1.12
2019-01-22T21:35:18.997Z,-1.06
2019-01-22T21:37:45.809Z,-1.02
2019-01-22T21:40:12.621Z,-1.22
2019-01-22T21:42:39.449Z,-0.99
2019-01-22T21:45:08.975Z,-1.00
2019-01-22T21:47:35.741Z,-1.15
2019-01-22T21:50:02.769Z,-0.98
2019-01-22T21:52:29.560Z,-0.68
2019-01-22T21:54:56.376Z,-0.92
2019-01-22T21:57:23.193Z,-1.05
2019-01-22T21:59:49.993Z,-0.84
2019-01-22T22:02:16.851Z,-0.88
2019-01-22T22:04:43.637Z,-0.93
2019-01-22T22:07:10.434Z,-0.57
2019-01-22T22:09:37.201Z,-0.37
2019-01-22T22:12:04.008Z,-0.77
2019-01-22T22:14:30.792Z,-0.50
2019-01-22T22:16:57.585Z,-0.75
2019-01-22T22:19:24.349Z,-0.85
2019-01-22T22:21:51.120Z,-0.93
2019-01-22T22:24:17.884Z,-0.63
2019-01-22T22:26:44.701Z,-1.12
2019-01-22T22:29:11.444Z,-0.68
2019-01-22T22:31:38.198Z,-0.57
2019-01-22T22:34:04.977Z,-0.90
2019-01-22T22:36:31.745Z,-0.93
2019-01-22T22:38:58.545Z,-0.64
2019-01-22T22:41:25.310Z,-0.97
2019-01-22T22:43:52.154Z,-0.83
2019-01-22T22:46:18.913Z,-0.78
2019-01-22T22:48:45.700Z,-0.98
2019-01-22T22:51:12.505Z,-0.68
2019-01-22T22:53:39.277Z,-0.88
2019-01-22T22:56:06.049Z,-1.17
2019-01-22T22:58:32.841Z,-1.07
2019-01-22T23:01:23.673Z,-1.09
2019-01-22T23:03:50.492Z,-1.49
2019-01-22T23:06:17.265Z,-1.32
2019-01-22T23:08:44.049Z,-1.04
2019-01-22T23:11:10.829Z,-1.18
2019-01-22T23:13:37.613Z,-1.08
2019-01-22T23:16:04.407Z,-0.95
2019-01-22T23:18:31.201Z,-1.27
2019-01-22T23:20:57.978Z,-1.14
2019-01-22T23:23:24.756Z,-1.00
2019-01-22T23:25:51.513Z,-0.78
2019-01-22T23:28:18.320Z,-1.17
2019-01-22T23:30:45.105Z,-0.68
2019-01-22T23:33:11.893Z,-0.27
2019-01-22T23:35:38.751Z,-0.86
2019-01-22T23:38:05.526Z,-0.73
2019-01-22T23:40:32.312Z,-0.91
2019-01-22T23:42:59.124Z,-0.55
2019-01-22T23:45:25.925Z,-0.35
2019-01-22T23:47:52.764Z,-0.84
2019-01-22T23:50:19.619Z,-0.69
2019-01-22T23:52:46.413Z,-0.63
2019-01-22T23:55:13.204Z,-1.11
2019-01-22T23:57:40.060Z,-0.67
